sensor_id;sensor_type;location;lat;lon;timestamp;pressure;altitude;pressure_sealevel;temperature
20730;BMP280;10526;50.850;12.928;2024-02-21T00:00:31;98565.00;;;6.75
20730;BMP280;10526;50.850;12.928;2024-02-21T00:04:53;98559.69;;;6.75
20730;BMP280;10526;50.850;12.928;2024-02-21T00:09:15;98542.69;;;6.72
20730;BMP280;10526;50.850;12.928;2024-02-21T00:13:37;98550.19;;;6.70
20730;BMP280;10526;50.850;12.928;2024-02-21T00:17:59;98546.00;;;6.69
20730;BMP280;10526;50.850;12.928;2024-02-21T00:22:21;98538.41;;;6.68
20730;BMP280;10526;50.850;12.928;2024-02-21T00:26:43;98542.94;;;6.67
20730;BMP280;10526;50.850;12.928;2024-02-21T00:31:05;98535.69;;;6.64
20730;BMP280;10526;50.850;12.928;2024-02-21T00:35:27;98528.53;;;6.65
20730;BMP280;10526;50.850;12.928;2024-02-21T00:39:49;98520.94;;;6.63
20730;BMP280;10526;50.850;12.928;2024-02-21T00:44:11;98519.00;;;6.60
20730;BMP280;10526;50.850;12.928;2024-02-21T00:48:33;98516.34;;;6.60
20730;BMP280;10526;50.850;12.928;2024-02-21T00:52:56;98512.88;;;6.56
20730;BMP280;10526;50.850;12.928;2024-02-21T00:57:18;98499.56;;;6.52
20730;BMP280;10526;50.850;12.928;2024-02-21T01:01:40;98504.78;;;6.45
20730;BMP280;10526;50.850;12.928;2024-02-21T01:06:04;98502.38;;;6.40
20730;BMP280;10526;50.850;12.928;2024-02-21T01:10:26;98492.84;;;6.35
20730;BMP280;10526;50.850;12.928;2024-02-21T01:14:48;98485.97;;;6.31
20730;BMP280;10526;50.850;12.928;2024-02-21T01:19:11;98477.31;;;6.34
20730;BMP280;10526;50.850;12.928;2024-02-21T01:23:35;98473.19;;;6.37
20730;BMP280;10526;50.850;12.928;2024-02-21T01:27:57;98464.66;;;6.43
20730;BMP280;10526;50.850;12.928;2024-02-21T01:32:19;98466.59;;;6.46
20730;BMP280;10526;50.850;12.928;2024-02-21T01:36:41;98454.19;;;6.50
20730;BMP280;10526;50.850;12.928;2024-02-21T01:41:04;98450.41;;;6.51
20730;BMP280;10526;50.850;12.928;2024-02-21T01:45:26;98440.91;;;6.47
20730;BMP280;10526;50.850;12.928;2024-02-21T01:49:48;98429.50;;;6.43
20730;BMP280;10526;50.850;12.928;2024-02-21T01:54:10;98423.00;;;6.40
20730;BMP280;10526;50.850;12.928;2024-02-21T01:58:37;98425.31;;;6.42
20730;BMP280;10526;50.850;12.928;2024-02-21T02:02:59;98425.31;;;6.42
20730;BMP280;10526;50.850;12.928;2024-02-21T02:07:21;98416.34;;;6.46
20730;BMP280;10526;50.850;12.928;2024-02-21T02:11:44;98411.09;;;6.50
20730;BMP280;10526;50.850;12.928;2024-02-21T02:16:06;98408.84;;;6.52
20730;BMP280;10526;50.850;12.928;2024-02-21T02:20:28;98405.88;;;6.53
20730;BMP280;10526;50.850;12.928;2024-02-21T02:24:49;98399.81;;;6.53
20730;BMP280;10526;50.850;12.928;2024-02-21T02:29:12;98396.03;;;6.54
20730;BMP280;10526;50.850;12.928;2024-02-21T02:33:33;98391.16;;;6.56
20730;BMP280;10526;50.850;12.928;2024-02-21T02:37:56;98381.00;;;6.58
20730;BMP280;10526;50.850;12.928;2024-02-21T02:42:18;98383.28;;;6.59
20730;BMP280;10526;50.850;12.928;2024-02-21T02:46:42;98364.00;;;6.59
20730;BMP280;10526;50.850;12.928;2024-02-21T02:51:04;98374.97;;;6.61
20730;BMP280;10526;50.850;12.928;2024-02-21T02:55:26;98367.81;;;6.61
20730;BMP280;10526;50.850;12.928;2024-02-21T02:59:49;98362.88;;;6.60
20730;BMP280;10526;50.850;12.928;2024-02-21T03:04:11;98365.88;;;6.58
20730;BMP280;10526;50.850;12.928;2024-02-21T03:08:34;98364.34;;;6.57
20730;BMP280;10526;50.850;12.928;2024-02-21T03:12:56;98364.69;;;6.56
20730;BMP280;10526;50.850;12.928;2024-02-21T03:17:17;98365.81;;;6.55
20730;BMP280;10526;50.850;12.928;2024-02-21T03:21:39;98354.81;;;6.53
20730;BMP280;10526;50.850;12.928;2024-02-21T03:26:01;98348.06;;;6.55
20730;BMP280;10526;50.850;12.928;2024-02-21T03:30:23;98347.00;;;6.60
20730;BMP280;10526;50.850;12.928;2024-02-21T03:34:45;98341.72;;;6.64
20730;BMP280;10526;50.850;12.928;2024-02-21T03:39:07;98330.06;;;6.65
20730;BMP280;10526;50.850;12.928;2024-02-21T03:43:30;98326.34;;;6.69
20730;BMP280;10526;50.850;12.928;2024-02-21T03:47:52;98333.59;;;6.72
20730;BMP280;10526;50.850;12.928;2024-02-21T03:52:14;98336.22;;;6.72
20730;BMP280;10526;50.850;12.928;2024-02-21T03:56:39;98338.47;;;6.74
20730;BMP280;10526;50.850;12.928;2024-02-21T04:01:02;98340.44;;;6.77
20730;BMP280;10526;50.850;12.928;2024-02-21T04:05:24;98332.88;;;6.79
20730;BMP280;10526;50.850;12.928;2024-02-21T04:09:46;98342.00;;;6.81
20730;BMP280;10526;50.850;12.928;2024-02-21T04:14:08;98336.72;;;6.81
20730;BMP280;10526;50.850;12.928;2024-02-21T04:18:30;98351.94;;;6.88
20730;BMP280;10526;50.850;12.928;2024-02-21T04:22:52;98348.88;;;6.86
20730;BMP280;10526;50.850;12.928;2024-02-21T04:27:14;98350.78;;;6.85
20730;BMP280;10526;50.850;12.928;2024-02-21T04:31:36;98339.75;;;6.83
20730;BMP280;10526;50.850;12.928;2024-02-21T04:35:58;98342.72;;;6.78
20730;BMP280;10526;50.850;12.928;2024-02-21T04:40:22;98334.38;;;6.76
20730;BMP280;10526;50.850;12.928;2024-02-21T04:44:44;98326.00;;;6.74
20730;BMP280;10526;50.850;12.928;2024-02-21T04:49:06;98318.41;;;6.69
20730;BMP280;10526;50.850;12.928;2024-02-21T04:53:28;98321.75;;;6.66
20730;BMP280;10526;50.850;12.928;2024-02-21T04:57:50;98317.59;;;6.65
20730;BMP280;10526;50.850;12.928;2024-02-21T05:02:12;98314.94;;;6.65
20730;BMP280;10526;50.850;12.928;2024-02-21T05:06:42;98311.09;;;6.63
20730;BMP280;10526;50.850;12.928;2024-02-21T05:11:04;98306.19;;;6.61
20730;BMP280;10526;50.850;12.928;2024-02-21T05:15:26;98305.44;;;6.64
20730;BMP280;10526;50.850;12.928;2024-02-21T05:19:48;98306.91;;;6.58
20730;BMP280;10526;50.850;12.928;2024-02-21T05:24:10;98307.53;;;6.51
20730;BMP280;10526;50.850;12.928;2024-02-21T05:28:32;98296.16;;;6.47
20730;BMP280;10526;50.850;12.928;2024-02-21T05:32:54;98290.41;;;6.42
20730;BMP280;10526;50.850;12.928;2024-02-21T05:37:16;98301.25;;;6.37
20730;BMP280;10526;50.850;12.928;2024-02-21T05:41:38;98282.34;;;6.34
20730;BMP280;10526;50.850;12.928;2024-02-21T05:46:00;98285.75;;;6.35
20730;BMP280;10526;50.850;12.928;2024-02-21T05:50:22;98266.47;;;6.34
20730;BMP280;10526;50.850;12.928;2024-02-21T05:54:45;98260.78;;;6.32
20730;BMP280;10526;50.850;12.928;2024-02-21T05:59:09;98262.63;;;6.28
20730;BMP280;10526;50.850;12.928;2024-02-21T06:03:31;98267.84;;;6.25
20730;BMP280;10526;50.850;12.928;2024-02-21T06:07:53;98258.78;;;6.26
20730;BMP280;10526;50.850;12.928;2024-02-21T06:12:15;98261.91;;;6.31
20730;BMP280;10526;50.850;12.928;2024-02-21T06:16:37;98249.13;;;6.37
20730;BMP280;10526;50.850;12.928;2024-02-21T06:20:59;98233.69;;;6.39
20730;BMP280;10526;50.850;12.928;2024-02-21T06:25:21;98240.16;;;6.42
20730;BMP280;10526;50.850;12.928;2024-02-21T06:29:43;98240.50;;;6.40
20730;BMP280;10526;50.850;12.928;2024-02-21T06:34:05;98218.50;;;6.36
20730;BMP280;10526;50.850;12.928;2024-02-21T06:38:27;98215.53;;;6.38
20730;BMP280;10526;50.850;12.928;2024-02-21T06:42:50;98208.03;;;6.43
20730;BMP280;10526;50.850;12.928;2024-02-21T06:47:12;98213.75;;;6.49
20730;BMP280;10526;50.850;12.928;2024-02-21T06:51:34;98221.34;;;6.50
20730;BMP280;10526;50.850;12.928;2024-02-21T06:55:56;98235.34;;;6.51
20730;BMP280;10526;50.850;12.928;2024-02-21T07:00:19;98228.22;;;6.55
20730;BMP280;10526;50.850;12.928;2024-02-21T07:04:43;98239.09;;;6.76
20730;BMP280;10526;50.850;12.928;2024-02-21T07:09:05;98234.09;;;7.01
20730;BMP280;10526;50.850;12.928;2024-02-21T07:13:27;98235.00;;;7.16
20730;BMP280;10526;50.850;12.928;2024-02-21T07:17:49;98243.06;;;7.23
20730;BMP280;10526;50.850;12.928;2024-02-21T07:22:11;98253.84;;;7.45
20730;BMP280;10526;50.850;12.928;2024-02-21T07:26:33;98249.75;;;7.51
20730;BMP280;10526;50.850;12.928;2024-02-21T07:30:55;98256.09;;;7.80
20730;BMP280;10526;50.850;12.928;2024-02-21T07:35:18;98254.16;;;8.28
20730;BMP280;10526;50.850;12.928;2024-02-21T07:39:40;98258.50;;;8.58
20730;BMP280;10526;50.850;12.928;2024-02-21T07:44:02;98259.69;;;8.71
20730;BMP280;10526;50.850;12.928;2024-02-21T07:48:25;98246.38;;;8.64
20730;BMP280;10526;50.850;12.928;2024-02-21T07:52:48;98242.91;;;8.45
20730;BMP280;10526;50.850;12.928;2024-02-21T07:57:10;98252.78;;;8.52
20730;BMP280;10526;50.850;12.928;2024-02-21T08:01:32;98275.59;;;8.64
20730;BMP280;10526;50.850;12.928;2024-02-21T08:05:54;98269.13;;;8.58
20730;BMP280;10526;50.850;12.928;2024-02-21T08:10:16;98268.72;;;8.56
20730;BMP280;10526;50.850;12.928;2024-02-21T08:14:38;98267.97;;;8.55
20730;BMP280;10526;50.850;12.928;2024-02-21T08:19:00;98250.66;;;8.86
20730;BMP280;10526;50.850;12.928;2024-02-21T08:23:24;98235.59;;;9.44
20730;BMP280;10526;50.850;12.928;2024-02-21T08:27:47;98213.88;;;10.24
20730;BMP280;10526;50.850;12.928;2024-02-21T08:32:08;98209.13;;;12.50
20730;BMP280;10526;50.850;12.928;2024-02-21T08:36:34;98214.84;;;16.49
20730;BMP280;10526;50.850;12.928;2024-02-21T08:40:56;98217.13;;;19.09
20730;BMP280;10526;50.850;12.928;2024-02-21T08:45:18;98214.41;;;20.25
20730;BMP280;10526;50.850;12.928;2024-02-21T08:49:40;98211.53;;;21.53
20730;BMP280;10526;50.850;12.928;2024-02-21T08:54:03;98232.00;;;22.34
20730;BMP280;10526;50.850;12.928;2024-02-21T08:58:24;98223.50;;;21.08
20730;BMP280;10526;50.850;12.928;2024-02-21T09:02:48;98228.84;;;19.25
20730;BMP280;10526;50.850;12.928;2024-02-21T09:07:11;98227.63;;;17.09
20730;BMP280;10526;50.850;12.928;2024-02-21T09:11:33;98235.16;;;15.54
20730;BMP280;10526;50.850;12.928;2024-02-21T09:15:55;98229.50;;;13.91
20730;BMP280;10526;50.850;12.928;2024-02-21T09:20:16;98219.63;;;12.33
20730;BMP280;10526;50.850;12.928;2024-02-21T09:24:39;98208.81;;;11.28
20730;BMP280;10526;50.850;12.928;2024-02-21T09:29:01;98224.25;;;10.99
20730;BMP280;10526;50.850;12.928;2024-02-21T09:33:23;98205.28;;;10.89
20730;BMP280;10526;50.850;12.928;2024-02-21T09:37:53;98211.16;;;10.49
20730;BMP280;10526;50.850;12.928;2024-02-21T09:42:20;98200.56;;;10.38
20730;BMP280;10526;50.850;12.928;2024-02-21T09:47:10;98208.59;;;10.17
20730;BMP280;10526;50.850;12.928;2024-02-21T09:51:36;98224.56;;;10.09
20730;BMP280;10526;50.850;12.928;2024-02-21T09:56:00;98218.47;;;10.16
20730;BMP280;10526;50.850;12.928;2024-02-21T10:00:23;98216.63;;;10.06
20730;BMP280;10526;50.850;12.928;2024-02-21T10:04:45;98221.16;;;10.09
20730;BMP280;10526;50.850;12.928;2024-02-21T10:09:08;98219.63;;;10.19
20730;BMP280;10526;50.850;12.928;2024-02-21T10:13:30;98232.50;;;10.38
20730;BMP280;10526;50.850;12.928;2024-02-21T10:18:00;98219.22;;;10.31
20730;BMP280;10526;50.850;12.928;2024-02-21T10:22:24;98220.03;;;9.99
20730;BMP280;10526;50.850;12.928;2024-02-21T10:26:48;98208.97;;;10.15
20730;BMP280;10526;50.850;12.928;2024-02-21T10:31:11;98211.56;;;10.44
20730;BMP280;10526;50.850;12.928;2024-02-21T10:35:34;98201.09;;;10.85
20730;BMP280;10526;50.850;12.928;2024-02-21T10:39:56;98188.66;;;11.23
20730;BMP280;10526;50.850;12.928;2024-02-21T10:44:19;98178.97;;;11.85
20730;BMP280;10526;50.850;12.928;2024-02-21T10:48:45;98175.84;;;12.27
20730;BMP280;10526;50.850;12.928;2024-02-21T10:58:25;98160.09;;;14.20
20730;BMP280;10526;50.850;12.928;2024-02-21T11:02:50;98148.63;;;18.30
20730;BMP280;10526;50.850;12.928;2024-02-21T11:07:12;98150.94;;;20.35
20730;BMP280;10526;50.850;12.928;2024-02-21T11:11:35;98149.53;;;20.39
20730;BMP280;10526;50.850;12.928;2024-02-21T11:16:20;98137.69;;;20.13
20730;BMP280;10526;50.850;12.928;2024-02-21T11:20:50;98133.13;;;20.19
20730;BMP280;10526;50.850;12.928;2024-02-21T11:25:22;98122.78;;;19.33
20730;BMP280;10526;50.850;12.928;2024-02-21T11:29:49;98119.03;;;18.76
20730;BMP280;10526;50.850;12.928;2024-02-21T11:34:13;98111.75;;;20.30
20730;BMP280;10526;50.850;12.928;2024-02-21T11:38:38;98092.78;;;19.83
20730;BMP280;10526;50.850;12.928;2024-02-21T11:43:01;98085.59;;;19.19
20730;BMP280;10526;50.850;12.928;2024-02-21T11:47:24;98065.31;;;20.85
20730;BMP280;10526;50.850;12.928;2024-02-21T11:51:46;98062.50;;;21.24
20730;BMP280;10526;50.850;12.928;2024-02-21T11:56:08;98040.75;;;20.35
20730;BMP280;10526;50.850;12.928;2024-02-21T12:00:30;98045.34;;;20.44
20730;BMP280;10526;50.850;12.928;2024-02-21T12:04:52;98040.50;;;20.48
20730;BMP280;10526;50.850;12.928;2024-02-21T12:09:16;98027.88;;;19.50
20730;BMP280;10526;50.850;12.928;2024-02-21T12:13:38;98017.50;;;17.56
20730;BMP280;10526;50.850;12.928;2024-02-21T12:18:01;97992.16;;;16.48
20730;BMP280;10526;50.850;12.928;2024-02-21T12:22:25;97974.59;;;15.96
20730;BMP280;10526;50.850;12.928;2024-02-21T12:26:47;97985.84;;;16.29
20730;BMP280;10526;50.850;12.928;2024-02-21T12:31:09;97976.47;;;15.86
20730;BMP280;10526;50.850;12.928;2024-02-21T12:35:31;97967.56;;;14.68
20730;BMP280;10526;50.850;12.928;2024-02-21T12:39:55;97956.72;;;13.77
20730;BMP280;10526;50.850;12.928;2024-02-21T12:44:16;97951.38;;;13.41
20730;BMP280;10526;50.850;12.928;2024-02-21T12:48:40;97934.19;;;12.82
20730;BMP280;10526;50.850;12.928;2024-02-21T12:53:02;97935.44;;;12.54
20730;BMP280;10526;50.850;12.928;2024-02-21T12:57:27;97920.53;;;12.33
20730;BMP280;10526;50.850;12.928;2024-02-21T13:01:49;97920.31;;;12.48
20730;BMP280;10526;50.850;12.928;2024-02-21T13:06:11;97908.53;;;12.45
20730;BMP280;10526;50.850;12.928;2024-02-21T13:10:33;97894.53;;;12.38
20730;BMP280;10526;50.850;12.928;2024-02-21T13:14:56;97882.69;;;12.15
20730;BMP280;10526;50.850;12.928;2024-02-21T13:19:18;97876.34;;;12.09
20730;BMP280;10526;50.850;12.928;2024-02-21T13:23:40;97872.69;;;12.19
20730;BMP280;10526;50.850;12.928;2024-02-21T13:28:02;97862.13;;;12.12
20730;BMP280;10526;50.850;12.928;2024-02-21T13:32:25;97848.28;;;12.21
20730;BMP280;10526;50.850;12.928;2024-02-21T13:36:47;97849.03;;;12.21
20730;BMP280;10526;50.850;12.928;2024-02-21T13:41:09;97843.81;;;12.14
20730;BMP280;10526;50.850;12.928;2024-02-21T13:45:31;97831.59;;;12.17
20730;BMP280;10526;50.850;12.928;2024-02-21T13:49:53;97832.66;;;12.19
20730;BMP280;10526;50.850;12.928;2024-02-21T13:54:15;97824.75;;;12.12
20730;BMP280;10526;50.850;12.928;2024-02-21T13:58:40;97824.00;;;12.12
20730;BMP280;10526;50.850;12.928;2024-02-21T14:03:03;97826.00;;;12.07
20730;BMP280;10526;50.850;12.928;2024-02-21T14:07:25;97818.88;;;12.01
20730;BMP280;10526;50.850;12.928;2024-02-21T14:11:47;97818.22;;;11.93
20730;BMP280;10526;50.850;12.928;2024-02-21T14:16:10;97818.59;;;11.95
20730;BMP280;10526;50.850;12.928;2024-02-21T14:20:35;97813.66;;;11.94
20730;BMP280;10526;50.850;12.928;2024-02-21T14:24:57;97822.47;;;11.91
20730;BMP280;10526;50.850;12.928;2024-02-21T14:29:20;97812.63;;;11.88
20730;BMP280;10526;50.850;12.928;2024-02-21T14:33:42;97812.94;;;11.90
20730;BMP280;10526;50.850;12.928;2024-02-21T14:38:04;97793.81;;;11.95
20730;BMP280;10526;50.850;12.928;2024-02-21T14:42:26;97797.34;;;11.88
20730;BMP280;10526;50.850;12.928;2024-02-21T14:46:48;97791.50;;;11.73
20730;BMP280;10526;50.850;12.928;2024-02-21T14:51:11;97797.56;;;11.50
20730;BMP280;10526;50.850;12.928;2024-02-21T14:55:33;97794.38;;;11.32
20730;BMP280;10526;50.850;12.928;2024-02-21T14:59:55;97779.00;;;11.16
20730;BMP280;10526;50.850;12.928;2024-02-21T15:04:18;97777.69;;;11.01
20730;BMP280;10526;50.850;12.928;2024-02-21T15:08:40;97774.00;;;10.91
20730;BMP280;10526;50.850;12.928;2024-02-21T15:13:03;97765.84;;;10.75
20730;BMP280;10526;50.850;12.928;2024-02-21T15:17:25;97759.19;;;10.60
20730;BMP280;10526;50.850;12.928;2024-02-21T15:21:47;97747.47;;;10.50
20730;BMP280;10526;50.850;12.928;2024-02-21T15:26:09;97728.97;;;10.39
20730;BMP280;10526;50.850;12.928;2024-02-21T15:30:31;97720.66;;;10.34
20730;BMP280;10526;50.850;12.928;2024-02-21T15:34:53;97721.13;;;10.29
20730;BMP280;10526;50.850;12.928;2024-02-21T15:39:15;97718.47;;;10.25
20730;BMP280;10526;50.850;12.928;2024-02-21T15:43:37;97707.13;;;10.21
20730;BMP280;10526;50.850;12.928;2024-02-21T15:48:00;97701.84;;;10.18
20730;BMP280;10526;50.850;12.928;2024-02-21T15:52:22;97688.22;;;10.12
20730;BMP280;10526;50.850;12.928;2024-02-21T15:56:44;97681.06;;;10.05
20730;BMP280;10526;50.850;12.928;2024-02-21T16:01:07;97666.28;;;9.97
20730;BMP280;10526;50.850;12.928;2024-02-21T16:05:29;97662.22;;;9.89
20730;BMP280;10526;50.850;12.928;2024-02-21T16:09:51;97655.13;;;9.79
20730;BMP280;10526;50.850;12.928;2024-02-21T16:14:13;97651.81;;;9.68
20730;BMP280;10526;50.850;12.928;2024-02-21T16:18:35;97642.38;;;9.60
20730;BMP280;10526;50.850;12.928;2024-02-21T16:22:57;97634.50;;;9.52
20730;BMP280;10526;50.850;12.928;2024-02-21T16:27:25;97632.63;;;9.46
20730;BMP280;10526;50.850;12.928;2024-02-21T16:31:47;97614.47;;;9.37
20730;BMP280;10526;50.850;12.928;2024-02-21T16:36:09;97614.94;;;9.25
20730;BMP280;10526;50.850;12.928;2024-02-21T16:40:41;97612.38;;;9.18
20730;BMP280;10526;50.850;12.928;2024-02-21T16:45:03;97598.00;;;9.12
20730;BMP280;10526;50.850;12.928;2024-02-21T16:49:27;97589.72;;;9.02
20730;BMP280;10526;50.850;12.928;2024-02-21T16:53:53;97587.50;;;8.94
20730;BMP280;10526;50.850;12.928;2024-02-21T16:58:15;97559.88;;;8.84
20730;BMP280;10526;50.850;12.928;2024-02-21T17:02:41;97570.97;;;8.76
20730;BMP280;10526;50.850;12.928;2024-02-21T17:07:16;97578.56;;;8.70
20730;BMP280;10526;50.850;12.928;2024-02-21T17:11:37;97568.75;;;8.60
20730;BMP280;10526;50.850;12.928;2024-02-21T17:16:00;97577.50;;;8.57
20730;BMP280;10526;50.850;12.928;2024-02-21T17:20:22;97589.66;;;8.47
20730;BMP280;10526;50.850;12.928;2024-02-21T17:24:45;97577.28;;;8.26
20730;BMP280;10526;50.850;12.928;2024-02-21T17:29:07;97567.13;;;8.10
20730;BMP280;10526;50.850;12.928;2024-02-21T17:33:29;97559.94;;;8.14
20730;BMP280;10526;50.850;12.928;2024-02-21T17:37:51;97540.22;;;8.08
20730;BMP280;10526;50.850;12.928;2024-02-21T17:42:15;97528.88;;;8.04
20730;BMP280;10526;50.850;12.928;2024-02-21T17:46:43;97526.63;;;8.03
20730;BMP280;10526;50.850;12.928;2024-02-21T17:51:05;97530.03;;;8.03
20730;BMP280;10526;50.850;12.928;2024-02-21T17:55:27;97524.72;;;8.07
20730;BMP280;10526;50.850;12.928;2024-02-21T17:59:49;97517.50;;;8.11
20730;BMP280;10526;50.850;12.928;2024-02-21T18:04:11;97509.88;;;8.16
20730;BMP280;10526;50.850;12.928;2024-02-21T18:08:33;97505.31;;;8.17
20730;BMP280;10526;50.850;12.928;2024-02-21T18:12:55;97501.59;;;8.14
20730;BMP280;10526;50.850;12.928;2024-02-21T18:17:18;97504.25;;;8.11
20730;BMP280;10526;50.850;12.928;2024-02-21T18:21:40;97486.09;;;8.02
20730;BMP280;10526;50.850;12.928;2024-02-21T18:26:02;97463.00;;;7.96
20730;BMP280;10526;50.850;12.928;2024-02-21T18:30:25;97457.31;;;7.97
20730;BMP280;10526;50.850;12.928;2024-02-21T18:34:47;97445.19;;;8.00
20730;BMP280;10526;50.850;12.928;2024-02-21T18:39:09;97438.72;;;8.04
20730;BMP280;10526;50.850;12.928;2024-02-21T18:43:32;97427.72;;;8.06
20730;BMP280;10526;50.850;12.928;2024-02-21T18:47:54;97419.38;;;8.11
20730;BMP280;10526;50.850;12.928;2024-02-21T18:52:16;97421.13;;;8.28
20730;BMP280;10526;50.850;12.928;2024-02-21T18:56:48;97420.31;;;8.38
20730;BMP280;10526;50.850;12.928;2024-02-21T19:01:10;97423.31;;;8.40
20730;BMP280;10526;50.850;12.928;2024-02-21T19:05:32;97416.50;;;8.39
20730;BMP280;10526;50.850;12.928;2024-02-21T19:09:55;97418.78;;;8.41
20730;BMP280;10526;50.850;12.928;2024-02-21T19:14:16;97405.06;;;8.50
20730;BMP280;10526;50.850;12.928;2024-02-21T19:18:38;97406.47;;;8.65
20730;BMP280;10526;50.850;12.928;2024-02-21T19:23:01;97401.38;;;8.78
20730;BMP280;10526;50.850;12.928;2024-02-21T19:27:25;97405.81;;;8.95
20730;BMP280;10526;50.850;12.928;2024-02-21T19:31:47;97396.53;;;9.10
20730;BMP280;10526;50.850;12.928;2024-02-21T19:36:09;97387.63;;;9.24
20730;BMP280;10526;50.850;12.928;2024-02-21T19:40:32;97382.66;;;9.26
20730;BMP280;10526;50.850;12.928;2024-02-21T19:44:54;97381.91;;;9.25
20730;BMP280;10526;50.850;12.928;2024-02-21T19:49:15;97373.13;;;9.28
20730;BMP280;10526;50.850;12.928;2024-02-21T19:53:38;97368.63;;;9.25
20730;BMP280;10526;50.850;12.928;2024-02-21T19:58:00;97354.53;;;9.28
20730;BMP280;10526;50.850;12.928;2024-02-21T20:02:21;97353.38;;;9.33
20730;BMP280;10526;50.850;12.928;2024-02-21T20:06:46;97340.41;;;9.35
20730;BMP280;10526;50.850;12.928;2024-02-21T20:11:12;97320.28;;;9.38
20730;BMP280;10526;50.850;12.928;2024-02-21T20:15:35;97320.25;;;9.41
20730;BMP280;10526;50.850;12.928;2024-02-21T20:19:57;97300.47;;;9.42
20730;BMP280;10526;50.850;12.928;2024-02-21T20:24:19;97296.56;;;9.50
20730;BMP280;10526;50.850;12.928;2024-02-21T20:29:00;97288.13;;;9.55
20730;BMP280;10526;50.850;12.928;2024-02-21T20:33:22;97273.94;;;9.66
20730;BMP280;10526;50.850;12.928;2024-02-21T20:37:44;97269.31;;;9.70
20730;BMP280;10526;50.850;12.928;2024-02-21T20:42:08;97262.53;;;9.65
20730;BMP280;10526;50.850;12.928;2024-02-21T20:46:31;97264.91;;;9.60
20730;BMP280;10526;50.850;12.928;2024-02-21T20:50:52;97253.28;;;9.50
20730;BMP280;10526;50.850;12.928;2024-02-21T20:55:15;97246.06;;;9.50
20730;BMP280;10526;50.850;12.928;2024-02-21T20:59:37;97255.81;;;9.61
20730;BMP280;10526;50.850;12.928;2024-02-21T21:03:59;97251.97;;;9.62
20730;BMP280;10526;50.850;12.928;2024-02-21T21:08:22;97243.81;;;9.72
20730;BMP280;10526;50.850;12.928;2024-02-21T21:12:44;97243.28;;;9.81
20730;BMP280;10526;50.850;12.928;2024-02-21T21:17:06;97237.19;;;9.84
20730;BMP280;10526;50.850;12.928;2024-02-21T21:21:29;97237.00;;;9.95
20730;BMP280;10526;50.850;12.928;2024-02-21T21:25:53;97242.59;;;10.00
20730;BMP280;10526;50.850;12.928;2024-02-21T21:30:15;97236.38;;;10.07
20730;BMP280;10526;50.850;12.928;2024-02-21T21:34:37;97224.59;;;10.08
20730;BMP280;10526;50.850;12.928;2024-02-21T21:39:00;97240.25;;;10.06
20730;BMP280;10526;50.850;12.928;2024-02-21T21:43:26;97234.81;;;10.09
20730;BMP280;10526;50.850;12.928;2024-02-21T21:47:50;97228.34;;;10.10
20730;BMP280;10526;50.850;12.928;2024-02-21T21:52:12;97217.66;;;10.14
20730;BMP280;10526;50.850;12.928;2024-02-21T21:56:35;97220.72;;;10.13
20730;BMP280;10526;50.850;12.928;2024-02-21T22:00:58;97205.41;;;10.17
20730;BMP280;10526;50.850;12.928;2024-02-21T22:05:20;97210.00;;;10.16
20730;BMP280;10526;50.850;12.928;2024-02-21T22:09:42;97207.78;;;10.15
20730;BMP280;10526;50.850;12.928;2024-02-21T22:14:05;97192.97;;;10.14
20730;BMP280;10526;50.850;12.928;2024-02-21T22:18:30;97189.97;;;10.11
20730;BMP280;10526;50.850;12.928;2024-02-21T22:22:54;97184.38;;;10.06
20730;BMP280;10526;50.850;12.928;2024-02-21T22:27:16;97180.66;;;10.00
20730;BMP280;10526;50.850;12.928;2024-02-21T22:31:40;97175.44;;;9.96
20730;BMP280;10526;50.850;12.928;2024-02-21T22:36:03;97168.13;;;10.00
20730;BMP280;10526;50.850;12.928;2024-02-21T22:40:25;97168.13;;;10.00
20730;BMP280;10526;50.850;12.928;2024-02-21T22:44:47;97159.81;;;9.98
20730;BMP280;10526;50.850;12.928;2024-02-21T22:49:09;97143.44;;;10.00
20730;BMP280;10526;50.850;12.928;2024-02-21T22:53:31;97143.25;;;10.10
20730;BMP280;10526;50.850;12.928;2024-02-21T22:57:53;97139.97;;;10.23
20730;BMP280;10526;50.850;12.928;2024-02-21T23:02:15;97129.84;;;10.34
20730;BMP280;10526;50.850;12.928;2024-02-21T23:06:37;97115.31;;;10.38
20730;BMP280;10526;50.850;12.928;2024-02-21T23:10:59;97109.41;;;10.47
20730;BMP280;10526;50.850;12.928;2024-02-21T23:15:22;97083.00;;;10.56
20730;BMP280;10526;50.850;12.928;2024-02-21T23:19:44;97068.81;;;10.59
20730;BMP280;10526;50.850;12.928;2024-02-21T23:24:06;97068.41;;;10.61
20730;BMP280;10526;50.850;12.928;2024-02-21T23:28:28;97055.50;;;10.59
20730;BMP280;10526;50.850;12.928;2024-02-21T23:32:50;97047.28;;;10.54
20730;BMP280;10526;50.850;12.928;2024-02-21T23:37:12;97043.53;;;10.51
20730;BMP280;10526;50.850;12.928;2024-02-21T23:41:34;97027.16;;;10.53
20730;BMP280;10526;50.850;12.928;2024-02-21T23:45:56;97027.47;;;10.55
20730;BMP280;10526;50.850;12.928;2024-02-21T23:50:18;97021.09;;;10.52
20730;BMP280;10526;50.850;12.928;2024-02-21T23:54:41;97002.63;;;10.45
20730;BMP280;10526;50.850;12.928;2024-02-21T23:59:03;97008.75;;;10.42
